Terminal Aerodrome Forecast
Issued by NWS

Home | Current Version | Previous Version | Text Only | Print | Product List | Glossary On
Versions: 1 2 3 4 5 6 7 8 9 10 11 12 13 14 15 16 17 18 19
000
FTUS46 KOTX 212320
TAFCOE
TAF
KCOE 212320Z 2200/2224 04007KT 5SM RA BR SCT003 OVC015
      TEMPO 2200/2203 BKN003 OVC015
     FM220800 17006KT 3SM -RA BR OVC004
     FM221600 19005KT 2SM BR SCT001 OVC010
     FM221800 17006KT 6SM -RA BR BKN025 OVC050=

USA.gov is the U.S. government's official web portal to all federal, state and local government web resources and services.